Time;durP1;ratioP1;P1;durP2;ratioP2;P2;SDS_P1;SDS_P2;PMS_P1;PMS_P2;Temp;Humidity;BMP_temperature;BMP_pressure;BME280_temperature;BME280_humidity;BME280_pressure;Samples;Min_cycle;Max_cycle;Signal;HPM_P1;HPM_P2
2022/10/31 00:01:28;;;;;;;29.52;20.10;;;;;;;12.05;97.35;101314.53;7397561;19;20022;-66
2022/10/31 00:03:56;;;;;;;27.88;19.73;;;;;;;12.06;96.84;101312.78;7399792;19;20541;-67
2022/10/31 00:06:25;;;;;;;30.05;19.98;;;;;;;12.06;96.43;101315.41;7400036;19;20039;-66
2022/10/31 00:09:01;;;;;;;35.80;20.33;;;;;;;12.06;97.27;101324.16;7398987;19;20022;-66
2022/10/31 00:11:33;;;;;;;29.58;19.67;;;;;;;12.05;97.37;101317.16;7397359;19;20022;-66
2022/10/31 00:14:02;;;;;;;30.98;20.08;;;;;;;12.04;97.11;101323.34;7397873;19;20022;-66
2022/10/31 00:16:32;;;;;;;30.02;19.33;;;;;;;12.04;97.16;101325.06;7399354;19;20011;-66
2022/10/31 00:19:02;;;;;;;32.60;19.05;;;;;;;12.01;96.95;101325.16;7399285;19;20474;-66
2022/10/31 00:21:38;;;;;;;26.45;18.83;;;;;;;12.00;97.33;101331.28;7398634;19;20038;-66
2022/10/31 00:24:08;;;;;;;27.63;18.98;;;;;;;12.00;97.06;101339.19;7397557;19;20027;-66
2022/10/31 00:26:39;;;;;;;30.10;19.73;;;;;;;11.98;96.67;101333.97;7399365;19;20039;-66
2022/10/31 00:29:07;;;;;;;28.60;20.05;;;;;;;11.97;97.08;101331.38;7399091;19;20018;-66
2022/10/31 00:31:36;;;;;;;30.10;19.65;;;;;;;11.96;96.87;101342.78;7395258;19;20027;-66
2022/10/31 00:34:05;;;;;;;31.92;19.50;;;;;;;11.94;96.79;101339.25;7399169;19;20026;-66
2022/10/31 00:36:33;;;;;;;30.67;19.88;;;;;;;11.91;97.01;101345.44;7399087;19;20018;-67
2022/10/31 00:39:02;;;;;;;27.10;19.98;;;;;;;11.87;97.04;101336.72;7396838;19;20015;-66
2022/10/31 00:41:31;;;;;;;30.65;20.13;;;;;;;11.86;97.14;101348.13;7397683;19;20021;-66
2022/10/31 00:44:02;;;;;;;27.83;19.95;;;;;;;11.84;97.02;101349.94;7398440;19;20492;-66
2022/10/31 00:46:31;;;;;;;34.20;20.45;;;;;;;11.81;97.06;101347.34;7399153;19;20022;-65
2022/10/31 00:48:59;;;;;;;30.95;20.60;;;;;;;11.80;97.11;101350.88;7396397;19;20018;-66
2022/10/31 00:51:28;;;;;;;30.80;20.38;;;;;;;11.78;97.19;101350.06;7395883;19;20085;-66
2022/10/31 00:53:57;;;;;;;33.97;21.27;;;;;;;11.76;97.36;101346.56;7398101;19;20509;-66
2022/10/31 00:56:25;;;;;;;31.25;20.15;;;;;;;11.76;96.96;101362.34;7398296;19;20035;-66
2022/10/31 00:58:54;;;;;;;29.45;20.17;;;;;;;11.74;97.60;101351.84;7396201;19;20248;-65
2022/10/31 01:01:25;;;;;;;34.58;20.75;;;;;;;11.73;97.55;101354.53;7395652;19;20470;-66
2022/10/31 01:03:53;;;;;;;31.52;20.38;;;;;;;11.70;97.62;101344.03;7395798;19;20494;-66
2022/10/31 01:06:22;;;;;;;30.15;20.48;;;;;;;11.69;97.12;101351.06;7398049;19;20022;-66
2022/10/31 01:08:51;;;;;;;31.58;19.42;;;;;;;11.69;nan;101358.06;7397831;19;20022;-67
2022/10/31 01:11:21;;;;;;;28.35;18.20;;;;;;;11.68;96.62;101361.63;7397225;19;20015;-66
2022/10/31 01:13:50;;;;;;;32.10;20.05;;;;;;;11.66;96.79;101358.13;7397904;19;20015;-66
2022/10/31 01:16:21;;;;;;;25.23;17.75;;;;;;;11.66;96.66;101359.00;7397745;19;20035;-66
2022/10/31 01:18:52;;;;;;;27.13;18.73;;;;;;;11.65;97.13;101359.03;7398114;19;20031;-65
2022/10/31 01:21:22;;;;;;;30.38;19.38;;;;;;;11.63;96.86;101361.69;7397343;19;20022;-66
2022/10/31 01:23:51;;;;;;;31.08;18.70;;;;;;;11.61;97.34;101362.59;7397539;19;20031;-66
2022/10/31 01:26:22;;;;;;;25.65;18.50;;;;;;;11.59;97.17;101357.38;7396981;19;20482;-66
2022/10/31 01:28:53;;;;;;;29.00;17.30;;;;;;;11.59;97.27;101354.75;7395849;19;20022;-66
2022/10/31 01:31:24;;;;;;;31.52;18.83;;;;;;;11.57;97.03;101349.53;7395636;19;20078;-65
2022/10/31 01:33:56;;;;;;;26.77;18.23;;;;;;;11.56;97.36;101355.66;7396865;19;20015;-69
2022/10/31 01:36:26;;;;;;;25.33;17.70;;;;;;;11.55;97.15;101356.56;7395741;19;20018;-65
2022/10/31 01:38:58;;;;;;;25.40;18.23;;;;;;;11.55;97.13;101353.94;7397464;19;20035;-65
2022/10/31 01:41:29;;;;;;;28.95;17.95;;;;;;;11.54;97.22;101351.34;7394092;19;20499;-66
2022/10/31 01:43:59;;;;;;;26.70;18.90;;;;;;;11.52;97.10;101356.59;7394572;19;20040;-67
2022/10/31 01:46:33;;;;;;;24.10;18.15;;;;;;;11.52;97.31;101353.97;7397161;19;20018;-65
2022/10/31 01:49:06;;;;;;;30.33;18.83;;;;;;;11.52;97.22;101361.84;7397059;19;20019;-66
2022/10/31 01:51:39;;;;;;;27.75;17.75;;;;;;;11.50;96.87;101355.75;7395513;19;20018;-65
2022/10/31 01:54:12;;;;;;;27.27;16.98;;;;;;;11.48;96.84;101362.78;7396924;19;20023;-66
2022/10/31 01:56:44;;;;;;;28.52;17.25;;;;;;;11.46;96.76;101358.44;7396986;19;20031;-65
2022/10/31 01:59:18;;;;;;;26.00;17.40;;;;;;;11.43;96.92;101362.00;7396847;19;20082;-65
2022/10/31 02:01:46;;;;;;;25.10;17.73;;;;;;;11.41;96.66;101361.13;7394861;19;20018;-66
2022/10/31 02:04:18;;;;;;;20.40;16.17;;;;;;;11.39;96.83;101371.69;7396224;19;20035;-65
2022/10/31 02:06:50;;;;;;;23.63;17.05;;;;;;;11.38;96.89;101371.72;7394106;19;20493;-66
2022/10/31 02:09:23;;;;;;;25.55;17.33;;;;;;;11.37;96.56;101368.22;7396413;19;20027;-66
2022/10/31 02:11:53;;;;;;;26.50;17.65;;;;;;;11.37;96.62;101359.47;7394741;19;20014;-66
2022/10/31 02:14:24;;;;;;;27.13;17.50;;;;;;;11.36;96.71;101370.84;7395543;19;20026;-66
2022/10/31 02:16:53;;;;;;;24.83;17.73;;;;;;;11.36;96.43;101370.84;7396182;19;20065;-66
2022/10/31 02:19:30;;;;;;;25.98;18.13;;;;;;;11.35;96.74;101370.00;7395399;19;20502;-66
2022/10/31 02:22:05;;;;;;;28.95;17.75;;;;;;;11.36;96.57;101371.75;7394365;19;20031;-66
2022/10/31 02:24:54;;;;;;;24.77;17.45;;;;;;;11.37;96.68;101376.09;7396072;19;20035;-66
2022/10/31 02:27:49;;;;;;;25.30;16.73;;;;;;;11.39;97.10;101384.81;7395751;19;20022;-66
2022/10/31 02:30:22;;;;;;;25.42;16.98;;;;;;;11.41;97.05;101377.78;7394279;19;20026;-67
2022/10/31 02:33:02;;;;;;;26.95;18.50;;;;;;;11.44;97.26;101384.75;7393939;19;20025;-67
2022/10/31 02:35:46;;;;;;;24.70;17.88;;;;;;;11.47;96.80;101378.59;7395520;19;20024;-66
2022/10/31 02:38:27;;;;;;;30.08;17.95;;;;;;;11.50;96.54;101381.16;7393213;19;20032;-66
2022/10/31 02:41:03;;;;;;;23.00;16.55;;;;;;;11.53;96.65;101381.97;7394632;19;20078;-65
2022/10/31 02:43:42;;;;;;;23.40;16.90;;;;;;;11.57;96.55;101382.81;7393009;19;20018;-65
2022/10/31 02:46:16;;;;;;;29.15;16.95;;;;;;;11.61;96.32;101383.63;7393002;19;20027;-66
2022/10/31 02:48:48;;;;;;;27.70;17.67;;;;;;;11.64;96.24;101388.81;7394489;19;20018;-66
2022/10/31 02:51:18;;;;;;;26.75;17.27;;;;;;;11.66;95.95;101389.69;7393285;19;20015;-66
2022/10/31 02:53:47;;;;;;;27.50;17.38;;;;;;;11.67;95.84;101391.41;7394860;19;20019;-66
2022/10/31 02:56:17;;;;;;;24.40;17.00;;;;;;;11.68;95.63;101390.53;7401607;19;20078;-67
2022/10/31 02:58:51;;;;;;;30.15;17.50;;;;;;;11.69;95.36;101392.25;7402005;19;20031;-67
2022/10/31 03:01:36;;;;;;;26.80;16.63;;;;;;;11.69;94.99;101385.25;7399491;19;20036;-66
2022/10/31 03:04:27;;;;;;;21.92;15.38;;;;;;;11.69;95.04;101398.38;7402550;19;20025;-66
2022/10/31 03:07:03;;;;;;;25.75;15.73;;;;;;;11.68;94.97;101391.38;7401076;19;20031;-67
2022/10/31 03:09:41;;;;;;;24.85;15.85;;;;;;;11.68;94.62;101401.03;7399230;19;20023;-66
2022/10/31 03:12:14;;;;;;;20.88;15.43;;;;;;;11.67;94.47;101404.56;7399875;19;20022;-66
2022/10/31 03:14:50;;;;;;;21.75;14.82;;;;;;;11.65;94.60;101401.06;7402316;19;20022;-67
2022/10/31 03:17:25;;;;;;;27.27;15.38;;;;;;;11.64;94.40;101400.22;7402150;19;20015;-67
2022/10/31 03:19:59;;;;;;;25.63;14.80;;;;;;;11.64;94.59;101404.59;7401384;19;20022;-67
2022/10/31 03:22:31;;;;;;;24.17;15.20;;;;;;;11.64;94.42;101415.09;7398904;19;20019;-67
2022/10/31 03:25:00;;;;;;;20.80;15.00;;;;;;;11.63;94.13;101413.41;7401914;19;20035;-67
2022/10/31 03:27:31;;;;;;;22.38;14.52;;;;;;;11.61;94.17;101421.28;7401308;19;20074;-67
2022/10/31 03:30:04;;;;;;;17.98;13.85;;;;;;;11.61;93.92;101425.69;7400302;19;20502;-67
2022/10/31 03:32:39;;;;;;;22.80;14.80;;;;;;;11.61;94.04;101429.16;7398815;19;20032;-67
2022/10/31 03:35:12;;;;;;;21.92;13.15;;;;;;;11.60;93.69;101429.19;7400678;19;20485;-67
2022/10/31 03:37:43;;;;;;;21.30;14.00;;;;;;;11.58;93.79;101431.84;7401179;19;20031;-67
2022/10/31 03:40:15;;;;;;;22.15;13.45;;;;;;;11.56;93.41;101429.25;7401832;19;20039;-67
2022/10/31 03:42:47;;;;;;;26.60;15.10;;;;;;;11.55;93.49;101431.88;7398363;19;20015;-67
2022/10/31 03:45:20;;;;;;;23.73;15.68;;;;;;;11.52;93.33;101432.78;7400911;19;20077;-67
2022/10/31 03:47:48;;;;;;;22.23;14.40;;;;;;;11.49;93.36;101438.09;7397823;19;20490;-67
2022/10/31 03:50:21;;;;;;;23.75;14.90;;;;;;;11.46;93.46;101438.16;7399430;19;20554;-67
2022/10/31 03:52:55;;;;;;;22.23;15.02;;;;;;;11.43;93.45;101432.94;7397846;19;20502;-67
2022/10/31 03:55:29;;;;;;;25.65;15.85;;;;;;;11.39;93.52;101444.38;7400937;19;20019;-67
2022/10/31 03:58:03;;;;;;;25.55;17.08;;;;;;;11.35;93.52;101447.97;7400889;19;20035;-66
2022/10/31 04:00:34;;;;;;;30.17;18.80;;;;;;;11.31;93.49;101440.97;7400634;19;20025;-66
2022/10/31 04:03:12;;;;;;;24.90;16.00;;;;;;;11.29;93.75;101445.41;7397728;19;20105;-67
2022/10/31 04:05:48;;;;;;;22.80;15.63;;;;;;;11.25;93.70;101450.69;7397212;19;20018;-66
2022/10/31 04:08:20;;;;;;;29.23;17.65;;;;;;;11.23;93.76;101447.22;7399699;19;20510;-67
2022/10/31 04:10:51;;;;;;;23.92;16.52;;;;;;;11.19;93.86;101456.00;7398352;19;20423;-67
2022/10/31 04:13:32;;;;;;;26.80;15.90;;;;;;;11.17;93.86;101444.69;7399959;19;20415;-67
2022/10/31 04:16:01;;;;;;;33.72;15.95;;;;;;;11.16;93.86;101447.31;7399434;19;20031;-67
2022/10/31 04:18:29;;;;;;;26.50;15.80;;;;;;;11.13;93.77;101449.97;7397376;19;20035;-67
2022/10/31 04:21:08;;;;;;;22.75;15.90;;;;;;;11.10;93.91;101453.53;7397068;19;20035;-67
2022/10/31 04:23:38;;;;;;;25.90;15.85;;;;;;;11.07;93.82;101457.06;7396729;19;20014;-67
2022/10/31 04:26:07;;;;;;;23.33;15.55;;;;;;;11.04;93.92;101450.97;7399098;19;20087;-67
2022/10/31 04:28:35;;;;;;;29.60;15.32;;;;;;;11.04;93.73;101458.84;7396702;19;20545;-67
2022/10/31 04:31:04;;;;;;;26.05;15.65;;;;;;;11.01;93.86;101451.88;7397530;19;20372;-66
2022/10/31 04:33:32;;;;;;;27.50;16.08;;;;;;;10.99;93.80;101452.78;7396501;19;20070;-66
2022/10/31 04:36:00;;;;;;;30.33;19.30;;;;;;;10.98;93.87;101461.53;7398969;19;20425;-67
2022/10/31 04:38:31;;;;;;;24.25;15.25;;;;;;;10.96;93.73;101463.34;7396747;19;20074;-67
2022/10/31 04:41:00;;;;;;;23.42;15.38;;;;;;;10.94;93.77;101465.09;7396608;19;20036;-67
2022/10/31 04:43:28;;;;;;;21.25;14.10;;;;;;;10.91;93.68;101464.22;7396207;19;20082;-67
2022/10/31 04:45:57;;;;;;;19.48;14.10;;;;;;;10.88;93.65;101466.03;7396333;19;20082;-67
2022/10/31 04:48:25;;;;;;;18.05;13.15;;;;;;;10.84;93.78;101473.09;7396574;19;20081;-67
2022/10/31 04:50:54;;;;;;;22.45;13.07;;;;;;;10.81;93.81;101475.72;7397186;19;20521;-67
2022/10/31 04:53:22;;;;;;;21.33;13.68;;;;;;;10.79;93.99;101472.25;7398553;19;20090;-66
2022/10/31 04:55:53;;;;;;;21.63;13.55;;;;;;;10.75;93.95;101470.53;7398445;19;20086;-67
2022/10/31 04:58:22;;;;;;;22.13;14.25;;;;;;;10.73;94.09;101469.72;7397999;19;20494;-66
2022/10/31 05:00:53;;;;;;;19.77;13.07;;;;;;;10.71;94.10;101460.97;7396114;19;20075;-67
2022/10/31 05:03:22;;;;;;;27.70;13.93;;;;;;;10.69;94.00;101465.34;7396260;19;20431;-67
2022/10/31 05:05:51;;;;;;;24.13;13.15;;;;;;;10.65;94.03;101475.00;7398097;19;20074;-66
2022/10/31 05:08:19;;;;;;;17.77;12.00;;;;;;;10.65;94.04;101476.78;7395972;19;20082;-67
2022/10/31 05:10:48;;;;;;;20.75;12.40;;;;;;;10.62;94.03;101468.97;7397054;19;20105;-67
2022/10/31 05:13:19;;;;;;;24.30;13.77;;;;;;;10.61;93.94;101473.31;7395484;19;20081;-67
2022/10/31 05:15:47;;;;;;;20.98;13.15;;;;;;;10.59;93.98;101475.09;7395752;19;20078;-67
2022/10/31 05:18:16;;;;;;;22.52;13.07;;;;;;;10.57;93.92;101471.63;7393504;19;20082;-67
2022/10/31 05:20:44;;;;;;;17.45;12.98;;;;;;;10.55;93.87;101476.88;7397261;19;20039;-67
2022/10/31 05:23:13;;;;;;;17.13;12.05;;;;;;;10.53;93.88;101469.91;7395599;19;20086;-67
2022/10/31 05:25:43;;;;;;;22.92;14.02;;;;;;;10.51;93.92;101472.53;7396993;19;20526;-69
2022/10/31 05:28:11;;;;;;;22.60;13.18;;;;;;;10.49;93.81;101473.44;7395103;19;20078;-67
2022/10/31 05:30:42;;;;;;;19.00;13.10;;;;;;;10.46;93.81;101471.72;7395239;19;20024;-65
2022/10/31 05:33:10;;;;;;;22.05;12.98;;;;;;;10.43;93.88;101472.59;7395384;19;20082;-67
2022/10/31 05:35:39;;;;;;;22.02;13.48;;;;;;;10.42;93.91;101472.63;7396449;19;20078;-67
2022/10/31 05:38:07;;;;;;;22.38;14.35;;;;;;;10.38;94.02;101466.53;7396801;19;20081;-67
2022/10/31 05:40:36;;;;;;;20.90;13.73;;;;;;;10.38;94.04;101486.66;7394912;19;20238;-66
2022/10/31 05:43:17;;;;;;;20.73;13.55;;;;;;;10.35;94.05;101478.78;7394116;19;20066;-67
2022/10/31 05:45:48;;;;;;;21.33;14.32;;;;;;;10.32;94.03;101473.56;7397325;19;20070;-68
2022/10/31 05:48:17;;;;;;;22.27;14.23;;;;;;;10.30;94.07;101475.31;7395359;19;20089;-67
2022/10/31 05:50:45;;;;;;;23.42;13.88;;;;;;;10.27;94.19;101470.97;7396109;19;20082;-67
2022/10/31 05:53:14;;;;;;;25.65;14.07;;;;;;;10.25;94.20;101476.25;7396638;19;20090;-68
2022/10/31 05:55:42;;;;;;;24.10;14.07;;;;;;;10.23;94.23;101474.53;7394843;19;20078;-68
2022/10/31 05:58:11;;;;;;;23.23;14.10;;;;;;;10.21;94.30;101479.78;7396041;19;20017;-67
2022/10/31 06:00:40;;;;;;;20.38;13.27;;;;;;;10.18;94.22;101485.03;7395834;19;20090;-67
2022/10/31 06:03:12;;;;;;;21.25;13.73;;;;;;;10.17;94.28;101482.44;7396089;19;20027;-67
2022/10/31 06:05:40;;;;;;;20.58;13.50;;;;;;;10.15;94.25;101481.56;7396266;19;20082;-67
2022/10/31 06:08:09;;;;;;;21.33;15.38;;;;;;;10.12;94.25;101479.84;7394305;19;20087;-67
2022/10/31 06:10:37;;;;;;;23.05;14.65;;;;;;;10.11;94.32;101494.72;7395241;19;20083;-66
2022/10/31 06:13:06;;;;;;;25.63;14.88;;;;;;;10.11;94.43;101497.34;7394269;19;20085;-67
2022/10/31 06:15:34;;;;;;;23.83;14.68;;;;;;;10.10;94.50;101498.22;7395753;19;20054;-67
2022/10/31 06:18:05;;;;;;;27.38;15.57;;;;;;;10.09;94.65;101499.09;7393965;19;20090;-67
2022/10/31 06:20:36;;;;;;;23.77;14.65;;;;;;;10.10;94.69;101499.97;7394272;19;20419;-66
2022/10/31 06:23:06;;;;;;;25.23;15.88;;;;;;;10.10;94.75;101505.22;7393419;19;20541;-67
2022/10/31 06:25:35;;;;;;;23.02;16.40;;;;;;;10.10;95.08;101513.09;7395249;19;20014;-67
2022/10/31 06:28:03;;;;;;;23.73;14.68;;;;;;;10.10;94.86;101513.09;7393391;19;20015;-67
2022/10/31 06:30:32;;;;;;;21.75;15.50;;;;;;;10.11;94.98;101514.84;7393029;19;20515;-66
2022/10/31 06:33:05;;;;;;;22.83;14.77;;;;;;;10.13;94.96;101517.44;7393182;19;20031;-67
2022/10/31 06:35:36;;;;;;;26.02;15.98;;;;;;;10.15;95.21;101520.91;7393896;19;20018;-67
2022/10/31 06:38:04;;;;;;;25.15;15.77;;;;;;;10.16;95.25;101520.91;7392882;19;20545;-67
2022/10/31 06:40:33;;;;;;;26.70;15.55;;;;;;;10.20;95.30;101522.63;7394790;19;20090;-67
2022/10/31 06:43:02;;;;;;;22.63;16.38;;;;;;;10.23;95.35;101527.81;7392168;19;20070;-67
2022/10/31 06:45:31;;;;;;;23.50;16.65;;;;;;;10.28;95.40;101527.81;7394932;19;20082;-67
2022/10/31 06:48:00;;;;;;;23.15;15.68;;;;;;;10.32;95.60;101523.41;7394393;19;20514;-67
2022/10/31 06:50:28;;;;;;;24.23;15.75;;;;;;;10.36;95.63;101526.03;7393065;19;20086;-67
2022/10/31 06:53:01;;;;;;;29.23;15.85;;;;;;;10.41;95.64;101529.47;7392566;19;20094;-67
2022/10/31 06:55:30;;;;;;;28.75;17.02;;;;;;;10.45;95.58;101538.19;7393678;19;20090;-67
2022/10/31 06:58:00;;;;;;;27.10;16.42;;;;;;;10.52;95.75;101541.63;7392814;19;20019;-67
2022/10/31 07:00:31;;;;;;;29.85;17.38;;;;;;;10.57;95.78;101540.69;7394671;19;20078;-66
2022/10/31 07:03:02;;;;;;;30.40;17.73;;;;;;;10.61;95.72;101538.91;7392878;19;20083;-67
2022/10/31 07:05:32;;;;;;;30.40;17.25;;;;;;;10.67;95.85;101541.50;7392883;19;20078;-67
2022/10/31 07:08:05;;;;;;;31.00;17.75;;;;;;;10.73;95.98;101546.69;7392404;19;20035;-66
2022/10/31 07:10:35;;;;;;;24.10;17.43;;;;;;;10.79;95.92;101542.25;7394023;19;20560;-67
2022/10/31 07:13:06;;;;;;;31.00;18.00;;;;;;;10.83;95.95;101533.47;7392160;19;20074;-67
2022/10/31 07:15:37;;;;;;;29.63;17.63;;;;;;;10.87;96.02;101541.28;7392508;19;20069;-67
2022/10/31 07:18:07;;;;;;;28.48;17.27;;;;;;;10.92;95.91;101544.75;7391655;19;20088;-67
2022/10/31 07:20:35;;;;;;;28.33;17.85;;;;;;;10.97;95.95;101543.81;7393842;19;20078;-66
2022/10/31 07:23:07;;;;;;;25.17;16.40;;;;;;;11.01;96.09;101546.41;7391764;19;20070;-67
2022/10/31 07:25:35;;;;;;;31.08;16.60;;;;;;;11.05;96.05;101547.25;7394087;19;20090;-66
2022/10/31 07:28:03;;;;;;;26.60;16.80;;;;;;;11.10;96.14;101553.31;7390980;19;20416;-67
2022/10/31 07:30:32;;;;;;;25.90;16.63;;;;;;;11.14;96.08;101549.75;7393337;19;20074;-67
2022/10/31 07:33:00;;;;;;;23.15;16.65;;;;;;;11.20;96.03;101557.56;7391201;19;20098;-67
2022/10/31 07:35:31;;;;;;;30.83;17.48;;;;;;;11.27;96.13;101557.50;7391100;19;20534;-67
2022/10/31 07:38:00;;;;;;;27.98;16.73;;;;;;;11.33;96.17;101565.31;7392043;19;20083;-67
2022/10/31 07:40:31;;;;;;;29.65;17.23;;;;;;;11.39;96.11;101562.63;7392171;19;20423;-67
2022/10/31 07:43:00;;;;;;;28.30;18.15;;;;;;;11.44;96.14;101563.44;7397265;19;20434;-67
2022/10/31 07:45:28;;;;;;;25.70;15.88;;;;;;;11.51;96.15;101567.72;7398906;19;20093;-67
2022/10/31 07:47:57;;;;;;;28.77;18.35;;;;;;;11.57;96.00;101570.28;7400952;19;20035;-68
2022/10/31 07:50:27;;;;;;;26.48;17.90;;;;;;;11.64;96.02;101563.19;7400189;19;20512;-67
2022/10/31 07:53:03;;;;;;;29.17;16.73;;;;;;;11.71;96.03;101567.47;7398080;19;20036;-66
2022/10/31 07:55:35;;;;;;;23.38;17.60;;;;;;;11.77;95.84;101566.50;7397576;19;20018;-66
2022/10/31 07:58:05;;;;;;;29.35;17.25;;;;;;;11.84;95.80;101560.28;7400016;19;20086;-66
2022/10/31 08:00:34;;;;;;;26.05;15.85;;;;;;;11.91;95.69;101561.06;7399926;19;20031;-66
2022/10/31 08:03:04;;;;;;;27.40;16.85;;;;;;;11.97;95.54;101570.66;7397299;19;20082;-67
2022/10/31 08:05:35;;;;;;;29.25;17.80;;;;;;;12.02;95.51;101561.81;7397213;19;20522;-67
2022/10/31 08:08:04;;;;;;;28.30;16.80;;;;;;;12.07;95.49;101572.28;7399594;19;20091;-67
2022/10/31 08:10:37;;;;;;;24.98;16.35;;;;;;;12.12;95.37;101586.22;7399494;19;20086;-67
2022/10/31 08:13:07;;;;;;;30.73;18.17;;;;;;;12.18;95.11;101583.50;7397230;19;20031;-67
2022/10/31 08:15:39;;;;;;;28.77;17.25;;;;;;;12.21;95.22;101585.22;7400237;19;20086;-67
2022/10/31 08:18:07;;;;;;;28.02;18.88;;;;;;;12.28;95.04;101588.63;7396957;19;20385;-67
2022/10/31 08:20:36;;;;;;;33.55;19.08;;;;;;;12.33;94.70;101592.94;7399626;19;20090;-64
2022/10/31 08:23:06;;;;;;;25.75;16.98;;;;;;;12.40;94.62;101588.44;7396959;19;20086;-66
2022/10/31 08:25:37;;;;;;;27.90;16.23;;;;;;;12.46;94.52;101590.97;7397448;19;20086;-65
2022/10/31 08:28:07;;;;;;;27.23;16.50;;;;;;;12.53;94.33;101587.31;7396469;19;20073;-66
2022/10/31 08:30:38;;;;;;;33.28;16.60;;;;;;;12.59;93.73;101590.78;7399147;19;20082;-67
2022/10/31 08:33:09;;;;;;;25.35;15.43;;;;;;;12.65;93.44;101593.28;7396121;19;20541;-66
2022/10/31 08:35:37;;;;;;;31.35;15.55;;;;;;;12.71;93.34;101596.69;7399188;19;20086;-67
2022/10/31 08:38:07;;;;;;;26.65;16.55;;;;;;;12.80;93.08;101589.50;7396264;19;20545;-66
2022/10/31 08:40:38;;;;;;;25.10;15.23;;;;;;;12.87;92.76;101586.75;7398584;19;20021;-65
2022/10/31 08:43:08;;;;;;;27.25;17.02;;;;;;;12.95;92.82;101593.66;7397255;19;20531;-67
2022/10/31 08:45:37;;;;;;;29.40;16.58;;;;;;;13.02;92.43;101582.09;7398350;19;20097;-67
2022/10/31 08:48:08;;;;;;;30.48;16.92;;;;;;;13.10;92.48;101587.22;7396060;19;20082;-66
2022/10/31 08:50:44;;;;;;;25.63;16.30;;;;;;;13.18;92.00;101591.47;7397059;19;20444;-66
2022/10/31 08:53:15;;;;;;;28.35;18.52;;;;;;;13.27;91.84;101594.81;7393958;19;20094;-67
2022/10/31 08:55:47;;;;;;;31.73;19.23;;;;;;;13.34;91.53;101589.41;7396261;19;20082;-67
2022/10/31 08:58:18;;;;;;;35.30;18.75;;;;;;;13.43;91.34;101592.78;7396325;19;20018;-66
2022/10/31 09:00:47;;;;;;;36.92;19.35;;;;;;;13.50;91.08;101591.75;7398120;19;20066;-66
2022/10/31 09:03:19;;;;;;;30.52;20.33;;;;;;;13.56;91.10;101588.09;7395887;19;20070;-66
2022/10/31 09:05:47;;;;;;;34.72;19.65;;;;;;;13.61;90.64;101595.03;7397728;19;20537;-67
2022/10/31 09:08:16;;;;;;;39.17;20.30;;;;;;;13.63;90.51;101587.94;7397331;19;20082;-67
2022/10/31 09:10:47;;;;;;;36.25;19.92;;;;;;;13.66;90.38;101592.28;7397565;19;20081;-65
2022/10/31 09:13:17;;;;;;;35.72;19.35;;;;;;;13.68;89.75;101591.34;7395745;19;20015;-66
2022/10/31 09:15:48;;;;;;;35.85;20.25;;;;;;;13.68;90.07;101591.34;7396052;19;20081;-66
2022/10/31 09:18:18;;;;;;;30.77;19.88;;;;;;;13.71;89.91;101603.63;7395436;19;20018;-66
2022/10/31 09:20:48;;;;;;;36.13;22.33;;;;;;;13.74;89.93;101600.06;7395827;19;20070;-66
2022/10/31 09:23:18;;;;;;;34.88;20.15;;;;;;;13.75;90.02;101592.13;7395060;19;20082;-66
2022/10/31 09:25:50;;;;;;;40.22;20.20;;;;;;;13.81;89.98;101606.91;7395090;19;20515;-66
2022/10/31 09:28:21;;;;;;;35.17;20.48;;;;;;;13.84;90.04;101601.59;7395072;19;20015;-66
2022/10/31 09:30:50;;;;;;;32.70;19.83;;;;;;;13.89;89.81;101602.38;7394859;19;20074;-66
2022/10/31 09:33:19;;;;;;;33.10;19.90;;;;;;;13.93;89.69;101605.81;7395028;19;20176;-66
2022/10/31 09:35:48;;;;;;;30.00;20.38;;;;;;;13.98;89.48;101598.66;7394825;19;20557;-67
2022/10/31 09:38:18;;;;;;;33.05;20.95;;;;;;;14.03;89.53;101602.06;7396670;19;20090;-68
2022/10/31 09:40:54;;;;;;;32.30;22.00;;;;;;;14.09;89.40;101599.28;7395257;19;20011;-66
2022/10/31 09:43:30;;;;;;;35.53;24.23;;;;;;;14.14;89.12;101604.44;7395347;19;20066;-67
2022/10/31 09:46:05;;;;;;;38.45;22.75;;;;;;;14.20;89.07;101606.06;7395313;19;20082;-66
2022/10/31 09:48:44;;;;;;;34.13;21.30;;;;;;;14.25;89.12;101612.97;7396478;19;20426;-66
2022/10/31 09:51:15;;;;;;;37.47;21.95;;;;;;;14.29;89.07;101604.09;7394307;19;20070;-66
2022/10/31 09:53:48;;;;;;;32.33;22.50;;;;;;;14.33;89.08;101596.94;7395441;19;20031;-66
2022/10/31 09:56:22;;;;;;;36.38;21.63;;;;;;;14.38;89.17;101597.75;7395314;19;20070;-67
2022/10/31 09:58:57;;;;;;;33.40;24.13;;;;;;;14.40;88.92;101598.53;7396268;19;20078;-65
2022/10/31 10:01:35;;;;;;;39.72;24.88;;;;;;;14.43;88.66;101597.59;7395310;19;20014;-71
2022/10/31 10:04:11;;;;;;;38.13;22.52;;;;;;;14.44;89.02;101597.56;7394351;19;20023;-65
2022/10/31 10:06:46;;;;;;;37.67;24.65;;;;;;;14.47;88.58;101592.22;7394567;19;20090;-66
2022/10/31 10:09:14;;;;;;;37.70;26.50;;;;;;;14.49;88.88;101595.72;7394889;19;20079;-66
2022/10/31 10:11:56;;;;;;;39.10;25.77;;;;;;;14.52;88.60;101586.84;7394770;19;20082;-65
2022/10/31 10:14:38;;;;;;;44.90;25.13;;;;;;;14.54;88.79;101584.16;7396153;19;20023;-66
2022/10/31 10:17:18;;;;;;;44.92;24.63;;;;;;;14.55;88.67;101586.75;7394291;19;20081;-65
2022/10/31 10:20:02;;;;;;;42.25;24.42;;;;;;;14.55;88.52;101583.25;7396551;19;20026;-67
2022/10/31 10:22:36;;;;;;;;;;;;;;;14.54;88.69;101584.16;7395655;19;20022;-67
2022/10/31 10:25:18;;;;;;;38.63;23.85;;;;;;;14.56;88.76;101588.50;7399993;19;19940;-65
2022/10/31 10:28:03;;;;;;;45.63;25.38;;;;;;;14.58;88.57;101584.00;7395962;19;20015;-68
2022/10/31 10:30:38;;;;;;;44.35;26.15;;;;;;;14.61;88.62;101583.97;7394688;19;20422;-67
2022/10/31 10:33:13;;;;;;;40.25;25.52;;;;;;;14.68;88.49;101595.25;7394898;19;20094;-67
2022/10/31 10:35:47;;;;;;;43.00;25.40;;;;;;;14.72;88.42;101583.72;7395025;19;20493;-67
2022/10/31 10:38:22;;;;;;;42.35;24.25;;;;;;;14.78;88.11;101580.91;7394815;19;20022;-68
2022/10/31 10:40:51;;;;;;;39.08;26.40;;;;;;;14.83;88.11;101579.00;7395232;19;20022;-68
2022/10/31 10:43:29;;;;;;;43.67;26.42;;;;;;;14.89;88.07;101579.78;7394171;19;20066;-68
2022/10/31 10:49:13;;;;;;;45.53;25.58;;;;;;;15.01;87.58;101581.22;7394776;19;20025;-67
2022/10/31 10:51:48;;;;;;;40.05;26.45;;;;;;;15.05;87.68;101578.47;7394123;19;20498;-68
2022/10/31 10:54:39;;;;;;;42.72;25.80;;;;;;;15.13;87.66;101572.97;7393154;19;20027;-68
2022/10/31 10:57:24;;;;;;;42.58;25.45;;;;;;;15.23;87.46;101568.28;7395685;19;20086;-68
2022/10/31 10:59:55;;;;;;;40.80;24.67;;;;;;;15.30;87.09;101575.13;7393348;19;20087;-69
2022/10/31 11:02:27;;;;;;;40.05;26.08;;;;;;;15.37;86.76;101566.09;7392900;19;20523;-68
2022/10/31 11:04:57;;;;;;;44.13;25.17;;;;;;;15.45;86.81;101563.25;7392669;19;20064;-68
2022/10/31 11:07:26;;;;;;;38.60;25.48;;;;;;;15.53;86.63;101565.66;7394992;19;20090;-70
2022/10/31 11:10:12;;;;;;;41.95;24.38;;;;;;;15.58;86.14;101556.69;7391913;19;20478;-67
2022/10/31 11:12:42;;;;;;;41.45;23.30;;;;;;;15.66;86.07;101563.50;7391964;19;20423;-68
2022/10/31 11:15:22;;;;;;;33.50;23.60;;;;;;;15.71;85.98;101554.53;7392719;19;20083;-69
2022/10/31 11:17:53;;;;;;;41.92;25.95;;;;;;;15.77;85.38;101559.66;7401374;19;20553;-68
2022/10/31 11:20:34;;;;;;;35.78;23.65;;;;;;;15.85;85.29;101553.28;7398386;19;20019;-68
2022/10/31 11:23:18;;;;;;;44.33;25.10;;;;;;;15.90;85.31;101546.94;7398638;19;20015;-67
2022/10/31 11:26:03;;;;;;;40.70;24.77;;;;;;;15.98;84.66;101538.75;7399046;19;20018;-68
2022/10/31 11:28:34;;;;;;;40.03;25.67;;;;;;;16.02;84.72;101534.22;7401254;19;20476;-68
2022/10/31 11:31:13;;;;;;;43.08;24.70;;;;;;;16.08;84.39;101537.53;7398178;19;20014;-69
2022/10/31 11:33:48;;;;;;;42.65;24.95;;;;;;;16.15;84.18;101540.88;7402557;19;20083;-66